createdAt,value
2019-04-25T05:27:57.415Z,39.05
2019-04-25T05:30:17.890Z,39.25
2019-04-25T05:32:47.798Z,40.52
2019-04-25T05:35:17.850Z,37.95
2019-04-25T05:37:47.781Z,39.15
2019-04-25T05:40:18.316Z,38.65
2019-04-25T05:42:49.637Z,39.55
2019-04-25T05:45:21.294Z,41.05
2019-04-25T05:47:51.136Z,40.15
2019-04-25T05:50:21.994Z,39.23
2019-04-25T05:52:54.049Z,40.67
2019-04-25T05:55:25.016Z,39.80
2019-04-25T05:57:56.127Z,37.25
2019-04-25T06:00:26.874Z,39.27
2019-04-25T06:02:57.060Z,38.42
2019-04-25T06:05:27.632Z,38.13
2019-04-25T06:07:58.404Z,37.67
2019-04-25T06:10:29.869Z,37.38
2019-04-25T06:13:01.226Z,37.78
2019-04-25T06:15:33.307Z,37.83
2019-04-25T06:18:04.726Z,37.17
2019-04-25T06:20:38.681Z,38.25
2019-04-25T06:23:10.125Z,37.42
2019-04-25T06:25:40.165Z,37.70
2019-04-25T06:28:13.743Z,35.48
2019-04-25T06:30:44.335Z,34.15
2019-04-25T06:33:14.436Z,34.20
2019-04-25T06:35:45.399Z,34.83
2019-04-25T06:38:18.083Z,32.93
2019-04-25T06:40:47.974Z,31.93
2019-04-25T06:43:17.778Z,31.10
2019-04-25T06:45:50.304Z,29.55
2019-04-25T06:48:23.048Z,29.87
2019-04-25T06:50:53.781Z,28.62
2019-04-25T06:53:25.638Z,27.05
2019-04-25T06:55:54.826Z,27.20
2019-04-25T06:58:26.929Z,24.30
2019-04-25T07:01:00.635Z,22.65
2019-04-25T07:03:27.576Z,23.95
2019-04-25T07:05:57.526Z,23.18
2019-04-25T07:08:27.789Z,22.73
2019-04-25T07:10:57.756Z,22.55
2019-04-25T07:13:28.423Z,21.62
2019-04-25T07:15:59.612Z,20.88
2019-04-25T07:18:32.558Z,18.55
2019-04-25T07:21:01.113Z,16.23
2019-04-25T07:23:33.417Z,17.73
2019-04-25T07:26:05.242Z,14.65
2019-04-25T07:28:36.929Z,14.33
2019-04-25T07:31:08.971Z,13.32
2019-04-25T07:33:43.247Z,14.05
2019-04-25T07:36:11.990Z,13.85
2019-04-25T07:38:43.429Z,12.00
2019-04-25T07:41:14.730Z,12.78
2019-04-25T07:43:44.964Z,12.65
2019-04-25T07:46:15.916Z,12.25
2019-04-25T07:48:45.718Z,12.60
2019-04-25T07:51:16.525Z,12.07
2019-04-25T07:53:46.361Z,10.80
2019-04-25T07:56:16.251Z,10.30
2019-04-25T07:58:52.213Z,10.05
2019-04-25T08:01:18.161Z,10.43
2019-04-25T08:03:47.893Z,9.43
2019-04-25T08:06:17.685Z,9.58
2019-04-25T08:08:47.623Z,10.85
2019-04-25T08:11:17.546Z,9.68
2019-04-25T08:13:49.087Z,9.73
2019-04-25T08:16:20.623Z,9.23
2019-04-25T08:18:51.178Z,10.18
2019-04-25T08:21:21.130Z,11.40
2019-04-25T08:23:53.235Z,9.55
2019-04-25T08:26:23.976Z,12.45
2019-04-25T08:28:57.508Z,11.37
2019-04-25T08:31:25.482Z,11.53
2019-04-25T08:33:55.353Z,9.88
2019-04-25T08:36:25.265Z,8.93
2019-04-25T08:38:54.853Z,9.08
2019-04-25T08:41:24.745Z,9.65
2019-04-25T08:43:54.705Z,9.43
2019-04-25T08:46:28.266Z,9.68
2019-04-25T08:49:02.058Z,9.05
2019-04-25T08:51:34.812Z,19.85
2019-04-25T08:54:06.296Z,9.00
2019-04-25T08:59:08.144Z,8.45
2019-04-25T09:01:41.663Z,10.18
2019-04-25T09:04:13.395Z,9.20
2019-04-25T09:06:44.250Z,9.58
2019-04-25T09:09:14.292Z,9.37
2019-04-25T09:11:46.915Z,8.90
2019-04-25T09:14:15.823Z,9.78
2019-04-25T09:16:46.173Z,8.53
2019-04-25T09:19:16.142Z,8.35
2019-04-25T09:21:49.383Z,8.98
2019-04-25T09:24:17.658Z,9.25
2019-04-25T09:26:47.357Z,8.40
2019-04-25T09:29:19.745Z,8.78
2019-04-25T09:31:48.950Z,8.83
2019-04-25T09:34:19.037Z,8.05
2019-04-25T09:36:48.755Z,8.20
2019-04-25T09:39:20.286Z,8.23
2019-04-25T09:41:50.602Z,8.18
2019-04-25T09:44:22.107Z,7.67
2019-04-25T09:49:23.803Z,7.95
2019-04-25T09:51:55.847Z,7.95
2019-04-25T09:54:28.784Z,7.45
2019-04-25T09:57:00.357Z,7.60
2019-04-25T09:59:30.414Z,7.42
2019-04-25T10:02:00.348Z,8.38
2019-04-25T10:04:30.321Z,7.75
2019-04-25T10:07:00.270Z,9.33
2019-04-25T10:09:33.679Z,6.83
2019-04-25T10:12:06.675Z,7.10
2019-04-25T10:14:39.510Z,7.47
2019-04-25T10:17:18.071Z,7.85
2019-04-25T10:19:48.048Z,7.45
2019-04-25T10:22:17.898Z,7.55
2019-04-25T10:24:59.885Z,7.17
2019-04-25T10:27:20.167Z,6.50
2019-04-25T10:29:53.785Z,6.60
2019-04-25T10:32:23.653Z,7.72
2019-04-25T10:34:53.326Z,6.83
2019-04-25T10:37:23.278Z,7.00
2019-04-25T10:39:55.303Z,7.08
2019-04-25T10:42:25.034Z,7.00
2019-04-25T10:44:56.603Z,7.22
2019-04-25T10:47:29.465Z,6.58
2019-04-25T10:50:03.830Z,8.00
2019-04-25T10:52:33.899Z,7.30
2019-04-25T10:55:04.486Z,7.53
2019-04-25T10:57:34.991Z,7.40
2019-04-25T11:00:09.630Z,6.17
2019-04-25T11:02:39.807Z,6.60
2019-04-25T11:05:13.642Z,6.22
2019-04-25T11:07:44.465Z,6.45
2019-04-25T11:10:15.256Z,6.90
2019-04-25T11:12:47.174Z,6.87
2019-04-25T11:15:17.111Z,6.45
2019-04-25T11:17:47.960Z,6.30
2019-04-25T11:20:20.818Z,6.00
2019-04-25T11:22:50.683Z,5.92
2019-04-25T11:25:20.546Z,6.92
2019-04-25T11:27:50.889Z,6.72
2019-04-25T11:30:23.376Z,7.10
2019-04-25T11:35:24.140Z,6.67
2019-04-25T11:37:56.865Z,6.87
2019-04-25T11:40:32.580Z,6.65
2019-04-25T11:43:04.199Z,6.65
2019-04-25T11:45:37.216Z,7.25
2019-04-25T11:48:07.414Z,6.28
2019-04-25T11:50:53.274Z,6.37
2019-04-25T11:53:25.001Z,6.30
2019-04-25T11:55:55.093Z,6.62
2019-04-25T11:58:26.539Z,6.03
2019-04-25T12:00:57.916Z,6.22
2019-04-25T12:03:28.051Z,6.67
2019-04-25T12:05:57.915Z,6.15
2019-04-25T12:08:27.673Z,6.75
2019-04-25T12:10:57.564Z,5.65
2019-04-25T12:13:27.490Z,6.53
2019-04-25T12:15:57.350Z,6.22
2019-04-25T12:18:27.421Z,6.33
2019-04-25T12:20:57.944Z,5.92
2019-04-25T12:23:27.750Z,6.25
2019-04-25T12:25:57.714Z,5.90
2019-04-25T12:28:27.734Z,6.17
2019-04-25T12:30:57.949Z,5.87
2019-04-25T12:33:27.711Z,6.22
2019-04-25T12:35:58.204Z,6.42
2019-04-25T12:38:28.042Z,6.37
2019-04-25T12:40:57.899Z,5.90
2019-04-25T12:43:29.362Z,6.35
2019-04-25T12:46:00.635Z,6.08
2019-04-25T12:48:30.595Z,6.53
2019-04-25T12:51:00.583Z,6.28
2019-04-25T12:53:30.167Z,6.60
2019-04-25T12:56:00.029Z,6.35
2019-04-25T12:58:29.842Z,6.95
2019-04-25T13:01:00.140Z,6.22
2019-04-25T13:03:29.938Z,6.08
2019-04-25T13:05:59.904Z,6.20
2019-04-25T13:08:29.725Z,6.15
2019-04-25T13:11:07.885Z,6.42
2019-04-25T13:13:33.751Z,6.50
2019-04-25T13:16:04.369Z,6.58
2019-04-25T13:18:34.325Z,6.17
2019-04-25T13:21:05.409Z,6.90
2019-04-25T13:23:35.394Z,6.72
2019-04-25T13:26:05.442Z,7.42
2019-04-25T13:28:37.312Z,6.92
2019-04-25T13:31:12.355Z,7.17
2019-04-25T13:33:43.269Z,6.42
2019-04-25T13:36:15.034Z,6.85
2019-04-25T13:41:15.110Z,6.50
2019-04-25T13:43:44.821Z,6.95
2019-04-25T13:46:18.852Z,7.40
2019-04-25T13:48:47.196Z,6.58
2019-04-25T13:51:17.197Z,6.75
2019-04-25T13:53:47.085Z,7.03
2019-04-25T13:56:17.816Z,6.00
2019-04-25T13:58:47.856Z,7.50
2019-04-25T14:01:21.057Z,6.30
2019-04-25T14:03:51.000Z,6.83
2019-04-25T14:06:22.264Z,7.10
2019-04-25T14:08:53.400Z,6.17
2019-04-25T14:11:24.099Z,6.42
2019-04-25T14:13:54.282Z,6.40
2019-04-25T14:16:27.029Z,6.40
2019-04-25T14:18:58.357Z,6.97
2019-04-25T14:23:57.833Z,5.97
2019-04-25T14:26:29.087Z,6.08
2019-04-25T14:28:58.852Z,6.45
2019-04-25T14:31:41.049Z,5.92
2019-04-25T14:34:00.161Z,6.55
2019-04-25T14:36:30.255Z,6.12
2019-04-25T14:39:00.172Z,6.17
2019-04-25T14:41:30.226Z,6.55
2019-04-25T14:44:00.067Z,6.70
2019-04-25T14:46:30.009Z,6.17
2019-04-25T14:48:59.943Z,6.35
2019-04-25T14:51:30.587Z,6.70
2019-04-25T14:54:02.616Z,6.22
2019-04-25T14:56:33.129Z,7.10
2019-04-25T14:59:04.492Z,6.90
2019-04-25T15:01:44.421Z,6.37
2019-04-25T15:06:34.862Z,7.95
2019-04-25T15:09:07.219Z,7.70
2019-04-25T15:11:37.830Z,7.72
2019-04-25T15:14:07.847Z,7.10
2019-04-25T15:16:37.366Z,8.03
2019-04-25T15:19:07.372Z,7.90
2019-04-25T15:21:37.304Z,7.50
2019-04-25T15:24:07.198Z,7.87
2019-04-25T15:26:37.080Z,7.90
2019-04-25T15:29:06.970Z,8.28
2019-04-25T15:31:37.031Z,8.60
2019-04-25T15:34:07.065Z,8.45
2019-04-25T15:36:39.109Z,8.55
2019-04-25T15:39:10.899Z,8.40
2019-04-25T15:44:13.198Z,8.45
2019-04-25T15:49:13.430Z,9.08
2019-04-25T15:51:43.361Z,8.15
2019-04-25T15:54:13.241Z,9.03
2019-04-25T15:56:43.177Z,8.43
2019-04-25T15:59:16.140Z,7.85
2019-04-25T16:01:46.092Z,8.75
2019-04-25T16:04:15.927Z,9.65
2019-04-25T16:06:45.758Z,8.43
2019-04-25T16:09:15.645Z,9.03
2019-04-25T16:11:45.489Z,8.88
2019-04-25T16:14:15.485Z,9.18
2019-04-25T16:16:45.380Z,8.05
2019-04-25T16:19:15.301Z,8.75
2019-04-25T16:21:45.185Z,8.73
2019-04-25T16:24:15.060Z,8.78
2019-04-25T16:26:44.894Z,9.05
2019-04-25T16:29:14.902Z,8.80
2019-04-25T16:31:44.761Z,9.80
2019-04-25T16:34:14.683Z,9.23
2019-04-25T16:36:44.580Z,9.13
2019-04-25T16:39:16.038Z,9.60
2019-04-25T16:41:47.671Z,9.65
2019-04-25T16:44:19.071Z,10.00
2019-04-25T16:46:48.843Z,9.18
2019-04-25T16:49:18.696Z,9.13
2019-04-25T16:51:48.548Z,9.28
2019-04-25T16:54:20.004Z,9.20
2019-04-25T16:56:49.892Z,9.23
2019-04-25T16:59:19.746Z,10.50
2019-04-25T17:01:49.581Z,9.60
2019-04-25T17:04:19.973Z,9.95
2019-04-25T17:06:49.968Z,9.93
2019-04-25T17:09:20.103Z,9.88
2019-04-25T17:11:49.978Z,10.13
2019-04-25T17:14:21.240Z,9.35
2019-04-25T17:16:53.282Z,10.28
2019-04-25T17:19:24.731Z,10.35
2019-04-25T17:21:54.559Z,9.83
2019-04-25T17:24:24.526Z,9.60
2019-04-25T17:26:54.408Z,10.00
2019-04-25T17:29:24.240Z,10.10
2019-04-25T17:31:55.673Z,10.98
2019-04-25T17:34:27.170Z,9.18
2019-04-25T17:36:59.661Z,10.03
2019-04-25T17:39:31.139Z,10.15
2019-04-25T17:42:01.965Z,10.25
2019-04-25T17:44:32.773Z,10.38
2019-04-25T17:47:06.485Z,11.13
2019-04-25T17:49:34.403Z,10.38
2019-04-25T17:52:04.267Z,10.58
2019-04-25T17:54:34.253Z,10.23
2019-04-25T17:57:04.340Z,10.98
2019-04-25T17:59:34.746Z,12.73
2019-04-25T18:02:04.828Z,10.68
2019-04-25T18:04:35.388Z,11.20
2019-04-25T18:07:05.794Z,11.12
2019-04-25T18:09:36.729Z,11.03
2019-04-25T18:12:06.852Z,12.13
2019-04-25T18:14:36.744Z,11.55
2019-04-25T18:17:07.660Z,11.88
2019-04-25T18:19:39.017Z,13.03
2019-04-25T18:22:10.536Z,12.47
2019-04-25T18:24:41.968Z,13.60
2019-04-25T18:27:13.356Z,12.25
2019-04-25T18:29:43.710Z,12.75
2019-04-25T18:32:13.857Z,12.78
2019-04-25T18:34:46.405Z,12.65
2019-04-25T18:37:17.827Z,13.78
2019-04-25T18:39:49.184Z,12.78
2019-04-25T18:42:20.871Z,13.13
2019-04-25T18:44:50.560Z,12.58
2019-04-25T18:47:20.447Z,12.47
2019-04-25T18:49:50.389Z,12.95
2019-04-25T18:52:21.913Z,12.23
2019-04-25T18:54:53.411Z,12.40
2019-04-25T18:57:24.801Z,13.03
2019-04-25T18:59:56.214Z,12.25
2019-04-25T19:02:27.593Z,12.03
2019-04-25T19:04:59.097Z,12.33
2019-04-25T19:07:29.051Z,13.43
2019-04-25T19:09:58.846Z,12.75
2019-04-25T19:12:28.627Z,12.95
2019-04-25T19:14:58.604Z,12.90
2019-04-25T19:17:28.468Z,12.37
2019-04-25T19:19:58.254Z,12.55
2019-04-25T19:22:28.239Z,12.55
2019-04-25T19:24:58.123Z,13.78
2019-04-25T19:27:28.025Z,12.70
2019-04-25T19:29:57.983Z,13.25
2019-04-25T19:32:28.381Z,12.63
2019-04-25T19:34:58.171Z,12.80
2019-04-25T19:37:28.036Z,13.35
2019-04-25T19:39:59.524Z,14.05
2019-04-25T19:42:30.884Z,13.58
2019-04-25T19:45:00.800Z,12.35
2019-04-25T19:47:30.848Z,13.03
2019-04-25T19:50:00.620Z,12.40
2019-04-25T19:52:30.527Z,12.68
2019-04-25T19:55:00.473Z,12.70
2019-04-25T19:57:30.338Z,12.13
2019-04-25T20:00:00.233Z,12.60
2019-04-25T20:02:31.577Z,12.07
2019-04-25T20:05:03.205Z,12.70
2019-04-25T20:07:34.620Z,12.65
2019-04-25T20:10:07.228Z,13.55
2019-04-25T20:12:38.816Z,12.85
2019-04-25T20:15:09.751Z,14.73
2019-04-25T20:17:39.660Z,14.33
2019-04-25T20:20:09.959Z,13.40
2019-04-25T20:22:39.835Z,12.68
2019-04-25T20:25:10.650Z,13.35
2019-04-25T20:27:40.527Z,13.50
2019-04-25T20:30:10.841Z,12.90
2019-04-25T20:32:40.701Z,13.40
2019-04-25T20:35:10.777Z,14.70
2019-04-25T20:37:40.643Z,12.88
2019-04-25T20:40:10.623Z,16.02
2019-04-25T20:42:40.355Z,15.55
2019-04-25T20:45:10.468Z,19.57
2019-04-25T20:47:40.424Z,16.48
2019-04-25T20:50:10.406Z,12.93
2019-04-25T20:52:40.207Z,13.58
2019-04-25T20:55:10.081Z,13.45
2019-04-25T20:57:39.896Z,13.60
2019-04-25T21:00:10.857Z,14.00
2019-04-25T21:02:40.875Z,13.43
2019-04-25T21:05:10.735Z,13.53
2019-04-25T21:07:40.453Z,13.30
2019-04-25T21:10:10.670Z,13.78
2019-04-25T21:12:40.384Z,13.50
2019-04-25T21:15:12.275Z,13.48
2019-04-25T21:17:43.683Z,13.30
2019-04-25T21:20:13.538Z,13.60
2019-04-25T21:22:43.357Z,14.00
2019-04-25T21:25:14.542Z,13.38
2019-04-25T21:27:44.351Z,13.53
2019-04-25T21:30:14.530Z,13.03
2019-04-25T21:32:45.888Z,12.80
2019-04-25T21:35:16.167Z,13.40
2019-04-25T21:37:45.924Z,13.53
2019-04-25T21:40:17.683Z,14.98
2019-04-25T21:42:49.092Z,14.10
2019-04-25T21:45:19.011Z,14.38
2019-04-25T21:47:48.964Z,13.32
2019-04-25T21:50:20.073Z,13.20
2019-04-25T21:52:50.143Z,20.48
2019-04-25T21:55:20.339Z,21.00
2019-04-25T21:57:50.425Z,17.87
2019-04-25T22:00:22.616Z,19.02
2019-04-25T22:02:54.784Z,18.15
2019-04-25T22:05:25.636Z,16.77
2019-04-25T22:07:56.209Z,16.02
2019-04-25T22:10:26.628Z,17.12
2019-04-25T22:13:10.523Z,17.32
2019-04-25T22:15:28.061Z,18.25
2019-04-25T22:17:58.268Z,18.60
2019-04-25T22:20:29.300Z,18.82
2019-04-25T22:23:00.105Z,19.07
2019-04-25T22:25:30.169Z,19.02
2019-04-25T22:28:01.106Z,19.87
2019-04-25T22:30:31.344Z,21.70
2019-04-25T22:33:03.650Z,20.17
2019-04-25T22:35:35.703Z,19.48
2019-04-25T22:38:06.397Z,19.20
2019-04-25T22:40:36.265Z,17.65
2019-04-25T22:43:06.376Z,19.52
2019-04-25T22:45:36.510Z,20.82
2019-04-25T22:48:06.690Z,20.97
2019-04-25T22:50:36.670Z,20.62
2019-04-25T22:53:06.588Z,19.35
2019-04-25T22:55:36.720Z,20.02
2019-04-25T22:58:06.599Z,18.70
2019-04-25T23:00:37.909Z,18.25
2019-04-25T23:03:09.742Z,18.55
2019-04-25T23:05:41.187Z,18.17
2019-04-25T23:08:11.314Z,17.45
2019-04-25T23:10:41.135Z,17.27
2019-04-25T23:13:11.027Z,15.32
2019-04-25T23:15:40.880Z,15.05
2019-04-25T23:18:11.406Z,16.85
2019-04-25T23:20:41.384Z,15.53
2019-04-25T23:23:11.742Z,16.62
2019-04-25T23:25:43.280Z,15.85
2019-04-25T23:28:14.610Z,14.38
2019-04-25T23:30:48.011Z,15.43
2019-04-25T23:33:17.723Z,15.05
2019-04-25T23:35:49.231Z,15.30
2019-04-25T23:38:19.068Z,14.98
2019-04-25T23:40:48.994Z,14.53
2019-04-25T23:43:18.973Z,14.23
2019-04-25T23:45:48.823Z,14.50
2019-04-25T23:48:18.793Z,15.40
2019-04-25T23:50:48.622Z,14.65
2019-04-25T23:53:18.329Z,13.83
2019-04-25T23:55:48.281Z,14.13
2019-04-25T23:58:18.148Z,14.25
